createdAt,value
2017-09-22T00:01:59.873Z,30.13
2017-09-22T00:04:27.472Z,28.93
2017-09-22T00:06:55.808Z,27.37
2017-09-22T00:09:23.601Z,28.97
2017-09-22T00:11:51.164Z,27.67
2017-09-22T00:14:18.736Z,27.55
2017-09-22T00:16:47.303Z,27.03
2017-09-22T00:19:14.868Z,26.42
2017-09-22T00:21:42.519Z,25.67
2017-09-22T00:24:10.107Z,25.87
2017-09-22T00:26:38.437Z,26.43
2017-09-22T00:29:06.028Z,26.85
2017-09-22T00:31:33.682Z,27.80
2017-09-22T00:34:02.783Z,29.33
2017-09-22T00:36:30.358Z,26.90
2017-09-22T00:38:59.876Z,27.90
2017-09-22T00:41:28.216Z,26.70
2017-09-22T00:43:55.896Z,28.70
2017-09-22T00:46:23.459Z,26.77
2017-09-22T00:48:51.060Z,26.98
2017-09-22T00:51:18.633Z,27.07
2017-09-22T00:53:46.444Z,26.30
2017-09-22T00:56:14.008Z,28.58
2017-09-22T00:58:41.580Z,26.57
2017-09-22T01:01:10.049Z,25.60
2017-09-22T01:03:38.390Z,25.40
2017-09-22T01:06:05.992Z,26.10
2017-09-22T01:08:34.340Z,25.50
2017-09-22T01:11:03.055Z,23.50
2017-09-22T01:13:31.408Z,24.57
2017-09-22T01:16:01.260Z,26.12
2017-09-22T01:18:29.991Z,22.67
2017-09-22T01:20:59.296Z,25.73
2017-09-22T01:23:26.957Z,25.53
2017-09-22T01:25:54.660Z,26.53
2017-09-22T01:28:22.485Z,25.02
2017-09-22T01:30:50.089Z,25.63
2017-09-22T01:33:17.683Z,26.33
2017-09-22T01:35:45.307Z,25.07
2017-09-22T01:38:12.908Z,24.20
2017-09-22T01:40:40.490Z,26.07
2017-09-22T01:43:08.084Z,24.75
2017-09-22T01:45:35.656Z,23.30
2017-09-22T01:48:04.298Z,25.05
2017-09-22T01:50:31.867Z,24.73
2017-09-22T01:53:00.872Z,23.40
2017-09-22T01:55:28.559Z,23.50
2017-09-22T01:57:56.452Z,23.90
2017-09-22T02:00:24.784Z,22.03
2017-09-22T02:02:52.355Z,21.70
2017-09-22T02:05:20.008Z,24.50
2017-09-22T02:07:47.584Z,22.27
2017-09-22T02:10:15.181Z,22.60
2017-09-22T02:12:42.753Z,24.00
2017-09-22T02:15:10.349Z,21.87
2017-09-22T02:17:37.920Z,23.17
2017-09-22T02:20:05.700Z,24.55
2017-09-22T02:22:33.272Z,24.00
2017-09-22T02:25:02.740Z,22.40
2017-09-22T02:27:30.424Z,22.97
2017-09-22T02:29:57.996Z,25.90
2017-09-22T02:32:26.355Z,23.60
2017-09-22T02:34:54.029Z,25.70
2017-09-22T02:37:21.633Z,24.23
2017-09-22T02:39:49.244Z,25.62
2017-09-22T02:42:17.016Z,25.17
2017-09-22T02:44:44.868Z,27.30
2017-09-22T02:47:12.544Z,23.48
2017-09-22T02:49:40.145Z,26.47
2017-09-22T02:52:07.780Z,27.47
2017-09-22T02:54:36.146Z,27.23
2017-09-22T02:57:03.713Z,26.70
2017-09-22T02:59:31.339Z,30.83
2017-09-22T03:02:00.847Z,30.80
2017-09-22T03:04:28.740Z,32.30
2017-09-22T03:06:56.314Z,30.73
2017-09-22T03:09:23.893Z,30.50
2017-09-22T03:11:52.256Z,32.00
2017-09-22T03:14:20.600Z,30.55
2017-09-22T03:16:48.200Z,26.77
2017-09-22T03:19:16.540Z,24.30
2017-09-22T03:21:44.224Z,19.53
2017-09-22T03:24:11.893Z,15.87
2017-09-22T03:26:39.492Z,18.67
2017-09-22T03:29:07.072Z,20.20
2017-09-22T03:31:34.639Z,19.80
2017-09-22T03:34:02.229Z,18.10
2017-09-22T03:36:30.080Z,18.83
2017-09-22T03:38:57.677Z,18.80
2017-09-22T03:41:26.011Z,17.73
2017-09-22T03:43:53.713Z,21.00
2017-09-22T03:46:22.055Z,20.50
2017-09-22T03:48:49.652Z,22.00
2017-09-22T03:51:17.988Z,19.92
2017-09-22T03:53:45.893Z,20.23
2017-09-22T03:56:13.556Z,20.93
2017-09-22T03:58:41.686Z,21.30
2017-09-22T04:01:09.276Z,22.60
2017-09-22T04:03:36.844Z,20.17
2017-09-22T04:06:04.440Z,21.60
2017-09-22T04:08:32.780Z,21.77
2017-09-22T04:11:02.808Z,22.30
2017-09-22T04:13:30.388Z,22.93
2017-09-22T04:16:00.208Z,21.40
2017-09-22T04:18:28.564Z,22.30
2017-09-22T04:20:56.225Z,22.67
2017-09-22T04:23:24.571Z,21.60
2017-09-22T04:25:52.165Z,23.30
2017-09-22T04:28:19.741Z,21.57
2017-09-22T04:30:48.124Z,19.93
2017-09-22T04:33:16.460Z,22.20
2017-09-22T04:35:44.032Z,23.40
2017-09-22T04:38:11.889Z,20.88
2017-09-22T04:40:39.456Z,22.70
2017-09-22T04:43:07.081Z,21.93
2017-09-22T04:45:34.651Z,22.93
2017-09-22T04:48:02.227Z,22.50
2017-09-22T04:50:29.825Z,21.77
2017-09-22T04:52:59.079Z,24.17
2017-09-22T04:55:26.673Z,23.57
2017-09-22T04:57:54.244Z,23.50
2017-09-22T05:00:22.581Z,21.57
2017-09-22T05:02:50.168Z,21.37
2017-09-22T05:05:17.835Z,21.70
2017-09-22T05:07:45.403Z,23.77
2017-09-22T05:10:13.000Z,24.17
2017-09-22T05:12:40.569Z,24.30
2017-09-22T05:15:08.192Z,23.50
2017-09-22T05:17:36.557Z,20.60
2017-09-22T05:20:04.116Z,23.77
2017-09-22T05:22:31.708Z,24.07
2017-09-22T05:25:00.769Z,25.20
2017-09-22T05:27:28.357Z,23.20
2017-09-22T05:29:56.693Z,23.30
2017-09-22T05:32:24.285Z,25.20
2017-09-22T05:34:51.853Z,24.58
2017-09-22T05:37:20.200Z,24.20
2017-09-22T05:39:47.764Z,23.90
2017-09-22T05:42:15.436Z,23.65
2017-09-22T05:44:42.999Z,25.35
2017-09-22T05:47:10.560Z,23.57
2017-09-22T05:49:38.153Z,23.65
2017-09-22T05:52:05.722Z,22.73
2017-09-22T05:54:33.341Z,24.00
2017-09-22T05:57:02.716Z,21.20
2017-09-22T05:59:30.407Z,22.57
2017-09-22T06:01:59.671Z,21.47
2017-09-22T06:04:27.264Z,21.27
2017-09-22T06:06:55.608Z,22.02
2017-09-22T06:09:23.296Z,21.00
2017-09-22T06:11:50.868Z,21.57
2017-09-22T06:14:18.441Z,22.02
2017-09-22T06:16:46.800Z,20.43
2017-09-22T06:19:14.364Z,20.73
2017-09-22T06:21:42.037Z,19.27
2017-09-22T06:24:09.604Z,23.23
2017-09-22T06:26:37.967Z,21.87
2017-09-22T06:29:05.540Z,21.15
2017-09-22T06:31:34.020Z,20.33
2017-09-22T06:34:02.781Z,20.83
2017-09-22T06:36:30.343Z,20.63
2017-09-22T06:38:57.936Z,22.00
2017-09-22T06:41:25.504Z,20.63
2017-09-22T06:43:54.688Z,21.83
2017-09-22T06:46:22.256Z,21.93
2017-09-22T06:48:49.912Z,19.43
2017-09-22T06:51:18.253Z,20.50
2017-09-22T06:53:45.844Z,19.47
2017-09-22T06:56:14.928Z,20.37
2017-09-22T06:58:42.545Z,20.33
2017-09-22T07:01:10.455Z,17.73
2017-09-22T07:03:38.140Z,21.10
2017-09-22T07:06:05.733Z,18.15
2017-09-22T07:08:33.295Z,20.60
2017-09-22T07:11:02.960Z,19.70
2017-09-22T07:13:30.532Z,19.50
2017-09-22T07:15:59.116Z,21.30
2017-09-22T07:18:26.677Z,19.83
2017-09-22T07:20:54.272Z,20.07
2017-09-22T07:23:21.838Z,21.57
2017-09-22T07:25:49.461Z,19.53
2017-09-22T07:28:17.031Z,18.17
2017-09-22T07:30:45.404Z,19.83
2017-09-22T07:33:13.122Z,18.90
2017-09-22T07:35:40.695Z,17.97
2017-09-22T07:38:08.384Z,19.10
2017-09-22T07:40:35.952Z,18.80
2017-09-22T07:43:03.540Z,19.77
2017-09-22T07:45:31.108Z,19.12
2017-09-22T07:47:58.725Z,17.90
2017-09-22T07:50:26.292Z,20.67
2017-09-22T07:52:53.889Z,20.50
2017-09-22T07:55:21.464Z,18.30
2017-09-22T07:57:49.184Z,20.03
2017-09-22T08:00:16.756Z,18.92
2017-09-22T08:02:45.095Z,19.37
2017-09-22T08:05:12.684Z,18.97
2017-09-22T08:07:40.256Z,18.73
2017-09-22T08:10:08.716Z,17.67
2017-09-22T08:12:36.289Z,17.63
2017-09-22T08:15:04.664Z,19.63
2017-09-22T08:17:32.321Z,17.70
2017-09-22T08:20:01.844Z,19.37
2017-09-22T08:22:30.204Z,17.20
2017-09-22T08:24:57.773Z,18.35
2017-09-22T08:27:25.437Z,18.73
2017-09-22T08:29:53.380Z,18.70
2017-09-22T08:32:20.949Z,18.43
2017-09-22T08:34:48.516Z,18.97
2017-09-22T08:37:16.123Z,17.70
2017-09-22T08:39:43.687Z,17.87
2017-09-22T08:42:11.261Z,19.85
2017-09-22T08:44:38.852Z,18.33
2017-09-22T08:47:06.713Z,19.17
2017-09-22T08:49:34.284Z,17.60
2017-09-22T08:52:03.901Z,16.83
2017-09-22T08:54:31.478Z,17.20
2017-09-22T08:57:00.760Z,16.33
2017-09-22T08:59:28.331Z,18.10
2017-09-22T09:01:56.704Z,17.20
2017-09-22T09:04:24.280Z,15.93
2017-09-22T09:06:52.639Z,16.30
2017-09-22T09:09:20.236Z,16.43
2017-09-22T09:11:47.809Z,16.65
2017-09-22T09:14:15.405Z,17.10
2017-09-22T09:16:42.980Z,17.50
2017-09-22T09:19:10.571Z,18.25
2017-09-22T09:21:38.928Z,17.33
2017-09-22T09:24:06.597Z,18.45
2017-09-22T09:26:34.936Z,17.63
2017-09-22T09:29:03.226Z,16.62
2017-09-22T09:31:30.908Z,17.83
2017-09-22T09:33:58.496Z,16.60
2017-09-22T09:36:26.838Z,17.85
2017-09-22T09:38:54.429Z,17.20
2017-09-22T09:41:22.769Z,17.92
2017-09-22T09:43:50.364Z,17.97
2017-09-22T09:46:18.709Z,16.33
2017-09-22T09:48:46.300Z,17.57
2017-09-22T09:51:14.632Z,17.70
2017-09-22T09:53:42.225Z,16.30
2017-09-22T09:56:09.891Z,17.92
2017-09-22T09:58:37.505Z,16.87
2017-09-22T10:01:05.076Z,18.20
2017-09-22T10:03:32.672Z,16.33
2017-09-22T10:06:02.792Z,16.73
2017-09-22T10:08:30.372Z,17.43
2017-09-22T10:10:58.728Z,16.58
2017-09-22T10:13:26.388Z,17.97
2017-09-22T10:15:54.055Z,15.98
2017-09-22T10:18:21.620Z,17.47
2017-09-22T10:20:49.208Z,16.07
2017-09-22T10:23:17.547Z,16.87
2017-09-22T10:25:45.219Z,16.40
2017-09-22T10:28:12.801Z,15.52
2017-09-22T10:30:41.160Z,16.20
2017-09-22T10:33:10.252Z,16.37
2017-09-22T10:35:39.352Z,15.43
2017-09-22T10:38:07.686Z,14.98
2017-09-22T10:40:35.288Z,14.77
2017-09-22T10:43:04.390Z,12.43
2017-09-22T10:45:32.760Z,13.33
2017-09-22T10:48:02.140Z,12.17
2017-09-22T10:50:29.827Z,10.70
2017-09-22T10:52:57.400Z,11.23
2017-09-22T10:55:25.767Z,10.20
2017-09-22T10:57:53.337Z,10.67
2017-09-22T11:00:21.035Z,10.33
2017-09-22T11:02:48.608Z,10.20
2017-09-22T11:05:16.200Z,11.68
2017-09-22T11:07:43.884Z,11.23
2017-09-22T11:10:11.456Z,10.87
2017-09-22T11:12:39.816Z,11.13
2017-09-22T11:15:07.484Z,10.53
2017-09-22T11:17:36.584Z,9.87
2017-09-22T11:20:04.248Z,9.03
2017-09-22T11:22:31.843Z,9.03
2017-09-22T11:25:00.765Z,8.10
2017-09-22T11:27:28.363Z,9.30
2017-09-22T11:29:55.949Z,9.50
2017-09-22T11:32:24.360Z,9.10
2017-09-22T11:34:51.959Z,9.03
2017-09-22T11:37:20.371Z,10.00
2017-09-22T11:39:48.876Z,9.57
2017-09-22T11:42:16.506Z,10.77
2017-09-22T11:44:44.092Z,10.40
2017-09-22T11:47:11.712Z,10.63
2017-09-22T11:49:39.380Z,8.60
2017-09-22T11:52:07.717Z,7.93
2017-09-22T11:54:35.312Z,8.93
2017-09-22T11:57:03.657Z,8.53
2017-09-22T11:59:31.354Z,10.43
2017-09-22T12:01:59.012Z,9.47
2017-09-22T12:04:26.640Z,10.13
2017-09-22T12:06:54.212Z,10.10
2017-09-22T12:09:21.875Z,9.73
2017-09-22T12:11:49.453Z,9.60
2017-09-22T12:14:17.048Z,9.93
2017-09-22T12:16:45.379Z,9.30
2017-09-22T12:19:12.979Z,8.27
2017-09-22T12:21:41.320Z,9.63
2017-09-22T12:24:09.004Z,8.50
2017-09-22T12:26:36.568Z,9.27
2017-09-22T12:29:04.157Z,8.37
2017-09-22T12:31:31.839Z,8.83
2017-09-22T12:34:01.765Z,9.10
2017-09-22T12:36:29.351Z,8.20
2017-09-22T12:38:57.023Z,8.50
2017-09-22T12:41:24.620Z,7.87
2017-09-22T12:43:52.185Z,8.23
2017-09-22T12:46:19.829Z,8.63
2017-09-22T12:48:47.573Z,8.80
2017-09-22T12:51:15.173Z,8.47
2017-09-22T12:53:42.797Z,7.00
2017-09-22T12:56:10.387Z,9.07
2017-09-22T12:58:38.836Z,8.83
2017-09-22T13:01:06.436Z,8.98
2017-09-22T13:03:34.011Z,7.67
2017-09-22T13:06:03.765Z,7.82
2017-09-22T13:08:31.336Z,8.53
2017-09-22T13:10:58.924Z,8.87
2017-09-22T13:13:27.253Z,9.23
2017-09-22T13:15:54.856Z,8.60
2017-09-22T13:18:23.218Z,8.60
2017-09-22T13:20:50.875Z,8.10
2017-09-22T13:23:18.540Z,8.60
2017-09-22T13:25:46.104Z,8.57
2017-09-22T13:28:13.701Z,9.70
2017-09-22T13:30:41.272Z,9.07
2017-09-22T13:33:08.864Z,7.97
2017-09-22T13:35:36.440Z,9.07
2017-09-22T13:38:04.028Z,8.77
2017-09-22T13:40:32.355Z,8.20
2017-09-22T13:43:00.912Z,8.00
2017-09-22T13:45:28.476Z,8.37
2017-09-22T13:47:56.071Z,8.90
2017-09-22T13:50:23.636Z,8.20
2017-09-22T13:52:51.308Z,8.07
2017-09-22T13:55:19.690Z,8.18
2017-09-22T13:57:47.349Z,8.70
2017-09-22T14:00:16.429Z,8.10
2017-09-22T14:02:44.116Z,9.40
2017-09-22T14:05:11.689Z,9.10
2017-09-22T14:07:40.052Z,9.83
2017-09-22T14:10:07.637Z,8.95
2017-09-22T14:12:35.996Z,9.70
2017-09-22T14:15:04.517Z,10.00
2017-09-22T14:17:32.133Z,9.30
2017-09-22T14:20:01.040Z,8.93
2017-09-22T14:22:29.411Z,8.47
2017-09-22T14:24:57.763Z,8.63
2017-09-22T14:27:25.333Z,8.20
2017-09-22T14:29:52.923Z,9.60
2017-09-22T14:32:21.252Z,7.47
2017-09-22T14:34:48.944Z,7.87
2017-09-22T14:37:16.612Z,7.47
2017-09-22T14:39:44.209Z,6.87
2017-09-22T14:42:11.776Z,8.00
2017-09-22T14:44:39.364Z,8.70
2017-09-22T14:47:06.952Z,7.70
2017-09-22T14:49:34.540Z,8.57
2017-09-22T14:52:03.692Z,8.85
2017-09-22T14:54:31.284Z,8.43
2017-09-22T14:56:58.848Z,8.00
2017-09-22T14:59:27.211Z,8.20
2017-09-22T15:01:54.900Z,8.10
2017-09-22T15:04:23.286Z,6.90
2017-09-22T15:06:51.636Z,7.60
2017-09-22T15:09:19.208Z,8.43
2017-09-22T15:11:46.859Z,9.20
2017-09-22T15:14:14.518Z,9.15
2017-09-22T15:16:42.467Z,8.00
2017-09-22T15:19:10.053Z,9.00
2017-09-22T15:21:37.718Z,7.90
2017-09-22T15:24:05.275Z,7.60
2017-09-22T15:26:32.939Z,7.97
2017-09-22T15:29:01.893Z,7.70
2017-09-22T15:31:29.496Z,7.57
2017-09-22T15:33:57.835Z,8.10
2017-09-22T15:36:25.425Z,7.80
2017-09-22T15:38:53.005Z,7.43
2017-09-22T15:41:21.369Z,8.30
2017-09-22T15:43:49.032Z,8.60
2017-09-22T15:46:16.624Z,7.37
2017-09-22T15:48:44.952Z,7.23
2017-09-22T15:51:12.520Z,8.20
2017-09-22T15:53:40.108Z,6.33
2017-09-22T15:56:08.445Z,6.28
2017-09-22T15:58:36.132Z,7.57
2017-09-22T16:01:03.985Z,7.20
2017-09-22T16:03:31.664Z,7.10
2017-09-22T16:06:00.148Z,7.00
2017-09-22T16:08:27.995Z,8.53
2017-09-22T16:10:55.580Z,8.20
2017-09-22T16:13:23.176Z,7.93
2017-09-22T16:15:50.744Z,7.50
2017-09-22T16:18:18.368Z,7.90
2017-09-22T16:20:45.931Z,8.23
2017-09-22T16:23:14.396Z,8.35
2017-09-22T16:25:41.960Z,7.50
2017-09-22T16:28:09.807Z,8.25
2017-09-22T16:30:37.379Z,7.90
2017-09-22T16:33:05.012Z,7.20
2017-09-22T16:35:32.676Z,7.20
2017-09-22T16:38:02.052Z,7.20
2017-09-22T16:40:29.672Z,8.20
2017-09-22T16:42:57.288Z,8.67
2017-09-22T16:45:24.864Z,8.40
2017-09-22T16:47:52.452Z,8.40
2017-09-22T16:50:20.012Z,8.83
2017-09-22T16:52:47.625Z,8.57
2017-09-22T16:55:15.240Z,8.82
2017-09-22T16:57:42.808Z,8.80
2017-09-22T17:00:10.425Z,8.10
2017-09-22T17:02:37.993Z,7.70
2017-09-22T17:05:05.680Z,8.30
2017-09-22T17:07:33.352Z,8.40
2017-09-22T17:10:02.128Z,10.02
2017-09-22T17:12:29.696Z,7.77
2017-09-22T17:14:57.290Z,9.37
2017-09-22T17:17:25.628Z,9.40
2017-09-22T17:19:53.309Z,11.00
2017-09-22T17:22:20.912Z,10.57
2017-09-22T17:24:48.576Z,11.03
2017-09-22T17:27:16.249Z,12.40
2017-09-22T17:29:44.140Z,12.37
2017-09-22T17:32:11.709Z,13.10
2017-09-22T17:34:39.300Z,13.67
2017-09-22T17:37:07.642Z,14.16
2017-09-22T17:39:35.245Z,13.47
2017-09-22T17:42:03.585Z,14.10
2017-09-22T17:44:31.181Z,15.00
2017-09-22T17:47:00.468Z,14.50
2017-09-22T17:49:29.563Z,15.73
2017-09-22T17:51:57.131Z,14.87
2017-09-22T17:54:25.562Z,16.20
2017-09-22T17:56:53.152Z,15.53
2017-09-22T17:59:20.751Z,14.30
2017-09-22T18:01:48.324Z,14.10
2017-09-22T18:04:15.945Z,12.90
2017-09-22T18:06:43.612Z,12.73
2017-09-22T18:09:11.953Z,13.55
2017-09-22T18:11:39.643Z,13.40
2017-09-22T18:14:07.270Z,13.05
2017-09-22T18:16:34.972Z,14.27
2017-09-22T18:19:03.667Z,12.40
2017-09-22T18:21:32.039Z,12.97
2017-09-22T18:24:01.004Z,12.77
2017-09-22T18:26:28.604Z,13.70
2017-09-22T18:28:56.264Z,12.77
2017-09-22T18:31:23.856Z,12.60
2017-09-22T18:33:51.424Z,10.57
2017-09-22T18:36:19.047Z,10.97
2017-09-22T18:38:46.627Z,10.30
2017-09-22T18:41:15.079Z,11.93
2017-09-22T18:43:42.647Z,11.50
2017-09-22T18:46:10.256Z,10.20
2017-09-22T18:48:37.825Z,11.15
2017-09-22T18:51:05.420Z,11.52
2017-09-22T18:53:32.988Z,11.77
2017-09-22T18:56:02.824Z,14.70
2017-09-22T18:58:31.160Z,13.30
2017-09-22T19:00:58.733Z,13.73
2017-09-22T19:03:26.324Z,13.57
2017-09-22T19:05:54.672Z,14.03
2017-09-22T19:08:22.307Z,13.60
2017-09-22T19:10:49.881Z,13.67
2017-09-22T19:13:17.487Z,12.97
2017-09-22T19:15:45.823Z,13.60
2017-09-22T19:18:13.420Z,13.35
2017-09-22T19:20:41.794Z,13.30
2017-09-22T19:23:10.155Z,13.93
2017-09-22T19:25:39.260Z,14.10
2017-09-22T19:28:06.847Z,12.45
2017-09-22T19:30:35.176Z,14.33
2017-09-22T19:33:03.788Z,13.82
2017-09-22T19:35:31.453Z,14.30
2017-09-22T19:37:59.108Z,14.30
2017-09-22T19:40:26.774Z,16.10
2017-09-22T19:42:54.400Z,15.23
2017-09-22T19:45:21.973Z,15.30
2017-09-22T19:47:49.581Z,15.80
2017-09-22T19:50:17.939Z,16.10
2017-09-22T19:52:45.574Z,15.17
2017-09-22T19:55:13.168Z,14.90
2017-09-22T19:57:41.544Z,14.03
2017-09-22T20:00:09.136Z,13.20
2017-09-22T20:02:36.712Z,12.73
2017-09-22T20:05:04.309Z,13.50
2017-09-22T20:07:31.888Z,14.65
2017-09-22T20:10:01.077Z,14.50
2017-09-22T20:12:28.648Z,14.30
2017-09-22T20:14:56.240Z,13.07
2017-09-22T20:17:23.854Z,14.67
2017-09-22T20:19:51.452Z,14.03
2017-09-22T20:22:19.792Z,13.17
2017-09-22T20:24:48.897Z,13.43
2017-09-22T20:27:16.477Z,14.90
2017-09-22T20:29:44.840Z,13.00
2017-09-22T20:32:12.408Z,15.80
2017-09-22T20:34:40.000Z,15.33
2017-09-22T20:37:07.579Z,14.90
2017-09-22T20:39:35.469Z,13.87
2017-09-22T20:42:03.485Z,15.70
2017-09-22T20:44:31.841Z,14.35
2017-09-22T20:47:01.838Z,16.23
2017-09-22T20:49:29.432Z,15.17
2017-09-22T20:51:57.773Z,15.43
2017-09-22T20:54:25.564Z,15.97
2017-09-22T20:56:53.901Z,17.07
2017-09-22T20:59:21.480Z,15.73
2017-09-22T21:01:49.071Z,14.03
2017-09-22T21:04:17.408Z,15.57
2017-09-22T21:06:45.121Z,16.70
2017-09-22T21:09:13.483Z,16.33
2017-09-22T21:11:41.047Z,15.63
2017-09-22T21:14:10.240Z,15.03
2017-09-22T21:16:37.904Z,16.20
2017-09-22T21:19:05.505Z,15.85
2017-09-22T21:21:33.391Z,15.80
2017-09-22T21:24:02.716Z,15.90
2017-09-22T21:26:30.399Z,16.70
2017-09-22T21:28:57.988Z,15.40
2017-09-22T21:31:25.559Z,18.80
2017-09-22T21:33:53.152Z,16.50
2017-09-22T21:36:20.724Z,18.00
2017-09-22T21:38:48.357Z,17.30
2017-09-22T21:41:15.936Z,18.53
2017-09-22T21:43:43.623Z,18.70
2017-09-22T21:46:11.195Z,17.47
2017-09-22T21:48:38.952Z,17.57
2017-09-22T21:51:06.528Z,17.05
2017-09-22T21:53:34.867Z,16.67
2017-09-22T21:56:03.790Z,17.70
2017-09-22T21:58:31.360Z,17.15
2017-09-22T22:01:00.643Z,16.17
2017-09-22T22:03:33.899Z,16.73
2017-09-22T22:06:08.388Z,16.47
2017-09-22T22:08:36.725Z,17.47
2017-09-22T22:11:04.320Z,19.97
2017-09-22T22:13:32.660Z,17.73
2017-09-22T22:16:01.877Z,18.17
2017-09-22T22:18:29.536Z,19.10
2017-09-22T22:20:57.136Z,18.85
2017-09-22T22:23:24.759Z,18.83
2017-09-22T22:25:52.423Z,19.40
2017-09-22T22:28:20.084Z,18.80
2017-09-22T22:30:47.813Z,19.10
2017-09-22T22:33:15.376Z,19.90
2017-09-22T22:35:42.961Z,19.87
2017-09-22T22:38:14.424Z,21.07
2017-09-22T22:40:41.993Z,19.73
2017-09-22T22:43:09.592Z,17.55
2017-09-22T22:45:37.164Z,19.17
2017-09-22T22:48:04.979Z,18.37
2017-09-22T22:50:32.643Z,17.90
2017-09-22T22:53:02.735Z,18.02
2017-09-22T22:55:30.636Z,18.90
2017-09-22T22:57:59.935Z,19.70
2017-09-22T23:00:27.504Z,19.07
2017-09-22T23:02:55.864Z,19.73
2017-09-22T23:05:23.460Z,19.70
2017-09-22T23:07:51.034Z,17.50
2017-09-22T23:10:18.636Z,20.23
2017-09-22T23:12:46.311Z,21.90
2017-09-22T23:15:14.216Z,22.45
2017-09-22T23:17:41.780Z,19.00
2017-09-22T23:20:09.344Z,18.70
2017-09-22T23:22:36.936Z,18.63
2017-09-22T23:25:04.508Z,19.07
2017-09-22T23:27:32.101Z,19.27
2017-09-22T23:30:01.781Z,19.87
2017-09-22T23:32:29.371Z,17.10
2017-09-22T23:34:57.711Z,19.20
2017-09-22T23:37:25.324Z,17.50
2017-09-22T23:39:53.656Z,18.30
2017-09-22T23:42:21.269Z,16.67
2017-09-22T23:44:48.886Z,17.93
2017-09-22T23:47:16.520Z,17.20
2017-09-22T23:49:44.116Z,17.27
2017-09-22T23:52:11.752Z,16.53
2017-09-22T23:54:39.340Z,15.50
2017-09-22T23:57:08.425Z,15.55
2017-09-22T23:59:36.032Z,15.90
